Time;durP1;ratioP1;P1;durP2;ratioP2;P2;SDS_P1;SDS_P2;PMS_P1;PMS_P2;Temp;Humidity;BMP_temperature;BMP_pressure;BME280_temperature;BME280_humidity;BME280_pressure;Samples;Min_cycle;Max_cycle;Signal;HPM_P1;HPM_P2
2022/08/29 00:00:23;;;;;;;5.63;2.80;;;23.80;77.50;;;;;;10012271;28;20025;-60
2022/08/29 00:05:15;;;;;;;5.53;2.50;;;23.70;77.70;;;;;;10014615;28;20021;-60
2022/08/29 00:10:06;;;;;;;3.47;2.50;;;23.70;77.80;;;;;;10009015;28;20145;-59
2022/08/29 00:14:57;;;;;;;4.18;2.83;;;23.70;78.00;;;;;;10018506;28;20132;-62
2022/08/29 00:19:48;;;;;;;4.90;2.92;;;23.60;78.40;;;;;;10011831;28;20099;-60
2022/08/29 00:24:38;;;;;;;4.55;2.72;;;23.60;78.10;;;;;;10019201;28;20034;-60
2022/08/29 00:29:29;;;;;;;5.55;2.30;;;23.60;78.10;;;;;;10019851;28;20063;-60
2022/08/29 00:34:20;;;;;;;4.95;2.20;;;23.60;77.90;;;;;;10019224;28;20042;-60
2022/08/29 00:39:10;;;;;;;4.72;2.40;;;23.50;78.30;;;;;;10026713;28;20030;-60
2022/08/29 00:44:02;;;;;;;4.97;2.70;;;23.30;78.40;;;;;;10019538;28;20037;-60
2022/08/29 00:48:57;;;;;;;4.82;2.53;;;23.20;78.50;;;;;;10018878;28;20397;-59
2022/08/29 00:54:01;;;;;;;9.35;2.15;;;23.10;78.30;;;;;;10016834;28;20026;-60
2022/08/29 00:58:57;;;;;;;4.65;2.05;;;23.10;78.00;;;;;;10002890;28;20033;-61
2022/08/29 01:03:49;;;;;;;4.30;2.33;;;23.00;77.80;;;;;;10021437;28;20400;-61
2022/08/29 01:08:40;;;;;;;5.00;2.42;;;22.80;77.80;;;;;;9993464;28;20618;-60
2022/08/29 01:13:35;;;;;;;5.03;3.35;;;22.80;77.60;;;;;;10019257;28;20186;-61
2022/08/29 01:18:27;;;;;;;4.32;2.13;;;22.70;77.40;;;;;;10017722;28;20033;-61
2022/08/29 01:23:42;;;;;;;3.75;2.38;;;22.50;77.40;;;;;;10017758;28;20022;-60
2022/08/29 01:28:37;;;;;;;5.03;2.03;;;22.50;76.90;;;;;;10017645;28;20026;-60
2022/08/29 01:33:35;;;;;;;2.88;1.63;;;22.50;76.60;;;;;;10017182;28;20073;-60
2022/08/29 01:38:28;;;;;;;3.15;2.33;;;22.30;76.60;;;;;;10022277;28;20068;-61
2022/08/29 01:43:19;;;;;;;7.45;2.20;;;22.20;76.50;;;;;;10017601;28;20037;-60
2022/08/29 01:48:09;;;;;;;3.75;1.90;;;22.10;76.30;;;;;;9992592;28;20065;-61
2022/08/29 01:53:01;;;;;;;4.78;2.35;;;22.00;76.30;;;;;;10013299;28;20041;-61
2022/08/29 01:57:51;;;;;;;3.28;1.88;;;21.90;76.30;;;;;;10013921;28;20053;-61
2022/08/29 02:02:42;;;;;;;3.90;2.30;;;21.90;76.00;;;;;;10019696;28;20034;-61
2022/08/29 02:07:34;;;;;;;5.57;1.80;;;21.80;76.10;;;;;;10016589;28;20506;-59
2022/08/29 02:12:25;;;;;;;3.95;1.85;;;21.80;75.90;;;;;;10021748;28;20128;-60
2022/08/29 02:17:15;;;;;;;4.10;1.92;;;21.70;76.00;;;;;;10014500;28;20034;-59
2022/08/29 02:22:07;;;;;;;3.30;1.98;;;21.80;75.70;;;;;;10015329;28;20026;-60
2022/08/29 02:26:58;;;;;;;3.40;1.95;;;21.80;75.50;;;;;;9998258;28;20053;-61
2022/08/29 02:31:48;;;;;;;5.18;2.15;;;21.80;75.40;;;;;;10007803;28;20619;-60
2022/08/29 02:36:39;;;;;;;7.07;2.95;;;21.50;75.70;;;;;;10022253;28;20104;-60
2022/08/29 02:41:30;;;;;;;4.32;1.65;;;21.50;75.70;;;;;;10018494;28;20041;-59
2022/08/29 02:46:21;;;;;;;3.95;2.15;;;21.50;75.70;;;;;;10007127;28;20045;-61
2022/08/29 02:51:27;;;;;;;6.97;2.90;;;21.40;75.90;;;;;;10014227;28;20519;-61
2022/08/29 02:56:18;;;;;;;3.88;1.88;;;21.40;75.60;;;;;;10023199;28;20048;-61
2022/08/29 03:01:10;;;;;;;5.55;2.50;;;21.30;75.80;;;;;;10010722;28;20099;-60
2022/08/29 03:06:01;;;;;;;6.00;2.13;;;21.20;76.20;;;;;;10013717;28;20025;-60
2022/08/29 03:10:51;;;;;;;4.05;1.42;;;21.10;76.20;;;;;;10012559;28;20059;-60
2022/08/29 03:15:42;;;;;;;4.75;1.85;;;21.20;76.10;;;;;;10019002;28;20280;-60
2022/08/29 03:20:35;;;;;;;7.18;1.65;;;21.10;76.00;;;;;;10014228;28;20026;-61
2022/08/29 03:25:26;;;;;;;3.35;1.95;;;21.00;76.20;;;;;;10013308;28;20030;-60
2022/08/29 03:30:17;;;;;;;4.88;2.78;;;21.00;76.40;;;;;;10012757;28;20411;-59
2022/08/29 03:35:10;;;;;;;4.18;1.70;;;20.90;76.50;;;;;;10012986;28;20040;-61
2022/08/29 03:40:01;;;;;;;2.90;1.92;;;20.80;76.50;;;;;;10013415;28;20439;-60
2022/08/29 03:44:51;;;;;;;3.33;1.58;;;20.80;76.60;;;;;;10010087;28;20160;-62
2022/08/29 03:49:43;;;;;;;3.90;1.60;;;20.60;76.80;;;;;;10012947;28;20344;-61
2022/08/29 03:54:34;;;;;;;3.70;2.05;;;20.70;76.90;;;;;;10020870;28;20025;-60
2022/08/29 03:59:24;;;;;;;4.32;1.85;;;20.80;76.50;;;;;;10035210;28;20028;-61
2022/08/29 04:09:26;;;;;;;6.00;2.00;;;20.70;77.00;;;;;;10023799;28;20573;-62
2022/08/29 04:14:19;;;;;;;2.03;1.45;;;20.50;77.10;;;;;;10031951;28;20133;-62
2022/08/29 04:19:10;;;;;;;2.60;1.20;;;20.50;77.40;;;;;;10025175;28;20066;-62
2022/08/29 04:24:00;;;;;;;3.40;2.00;;;20.40;77.60;;;;;;10023384;28;20248;-62
2022/08/29 04:28:52;;;;;;;2.70;1.45;;;20.40;77.60;;;;;;10025520;28;20045;-62
2022/08/29 04:33:42;;;;;;;3.50;1.80;;;20.30;77.80;;;;;;10025357;28;20065;-62
2022/08/29 04:38:33;;;;;;;7.47;1.80;;;20.20;78.20;;;;;;10024911;28;20068;-61
2022/08/29 04:43:23;;;;;;;4.97;1.85;;;20.10;78.40;;;;;;10025034;28;20037;-62
2022/08/29 04:48:16;;;;;;;6.60;1.65;;;20.10;78.30;;;;;;10027144;28;20045;-62
2022/08/29 04:53:06;;;;;;;3.03;1.40;;;20.30;77.90;;;;;;10015656;28;20065;-61
2022/08/29 04:57:57;;;;;;;2.22;1.80;;;20.20;78.10;;;;;;10024981;28;20026;-60
2022/08/29 05:02:48;;;;;;;6.03;2.22;;;20.20;78.40;;;;;;10008465;28;20077;-59
2022/08/29 05:07:39;;;;;;;1.98;1.23;;;20.30;78.20;;;;;;9992660;28;20128;-60
2022/08/29 05:12:32;;;;;;;1.90;1.08;;;20.10;78.60;;;;;;10019301;28;20042;-60
2022/08/29 05:17:23;;;;;;;3.25;1.23;;;20.00;78.90;;;;;;10017199;28;20030;-59
2022/08/29 05:22:16;;;;;;;2.92;1.08;;;20.30;78.40;;;;;;10000470;28;20034;-60
2022/08/29 05:27:13;;;;;;;3.90;1.15;;;20.40;78.20;;;;;;10018174;28;20033;-60
2022/08/29 05:32:05;;;;;;;3.20;1.52;;;20.30;78.20;;;;;;10000681;28;20048;-60
2022/08/29 05:36:55;;;;;;;2.75;1.60;;;20.40;78.40;;;;;;9984089;28;20026;-60
2022/08/29 05:41:46;;;;;;;2.80;1.52;;;20.30;78.60;;;;;;10000499;28;20028;-60
2022/08/29 05:46:37;;;;;;;3.17;1.52;;;20.20;78.80;;;;;;10017751;28;20940;-60
2022/08/29 05:51:27;;;;;;;3.58;1.75;;;20.40;78.70;;;;;;10014970;28;20077;-61
2022/08/29 05:56:24;;;;;;;2.95;1.50;;;20.30;78.70;;;;;;10017386;28;20397;-60
2022/08/29 06:01:20;;;;;;;2.63;1.67;;;20.20;79.00;;;;;;10016535;28;20041;-61
2022/08/29 06:06:11;;;;;;;4.85;1.55;;;20.20;79.20;;;;;;10015931;28;20084;-61
2022/08/29 06:11:01;;;;;;;6.72;2.47;;;20.30;79.10;;;;;;10015999;28;20085;-61
2022/08/29 06:15:52;;;;;;;5.15;1.50;;;20.30;79.00;;;;;;10017193;28;20091;-61
2022/08/29 06:20:43;;;;;;;2.10;1.65;;;20.30;79.20;;;;;;10002312;28;20538;-60
2022/08/29 06:25:34;;;;;;;2.97;1.17;;;20.40;79.20;;;;;;10004899;28;20026;-60
2022/08/29 06:30:24;;;;;;;4.68;1.75;;;20.40;79.20;;;;;;10006717;28;20045;-60
2022/08/29 06:35:15;;;;;;;3.25;1.65;;;20.60;78.90;;;;;;10014845;28;20519;-60
2022/08/29 06:40:07;;;;;;;1.77;1.23;;;20.70;79.20;;;;;;10015272;28;20532;-60
2022/08/29 06:44:57;;;;;;;3.05;1.17;;;20.80;79.10;;;;;;10013918;28;20038;-59
2022/08/29 06:49:48;;;;;;;4.22;1.85;;;20.80;79.40;;;;;;9996429;28;20460;-61
2022/08/29 06:54:39;;;;;;;4.15;2.03;;;20.90;79.60;;;;;;9993642;28;20371;-61
2022/08/29 06:59:29;;;;;;;4.75;1.52;;;20.90;79.40;;;;;;10005402;28;20554;-60
2022/08/29 07:04:20;;;;;;;3.45;1.77;;;21.00;79.50;;;;;;10014040;28;20579;-60
2022/08/29 07:09:12;;;;;;;3.90;1.95;;;21.20;79.20;;;;;;10013670;28;20029;-60
2022/08/29 07:14:03;;;;;;;9.40;3.17;;;21.00;79.50;;;;;;10012161;28;20455;-61
2022/08/29 07:18:54;;;;;;;4.25;2.13;;;21.10;79.60;;;;;;10013934;28;20034;-62
2022/08/29 07:23:45;;;;;;;4.50;1.73;;;21.50;79.00;;;;;;10013423;28;20029;-60
2022/08/29 07:28:36;;;;;;;5.53;2.47;;;21.50;79.00;;;;;;10012887;28;20034;-59
2022/08/29 07:33:27;;;;;;;4.15;2.15;;;21.70;79.00;;;;;;10012303;28;20488;-60
2022/08/29 07:38:17;;;;;;;4.95;2.08;;;21.70;79.00;;;;;;10020996;28;20052;-60
2022/08/29 07:43:09;;;;;;;8.13;1.75;;;21.80;79.00;;;;;;10009598;28;20065;-59
2022/08/29 07:48:00;;;;;;;4.35;1.75;;;21.80;79.00;;;;;;10012540;28;20081;-61
2022/08/29 07:52:51;;;;;;;4.22;2.05;;;22.00;78.90;;;;;;10013436;28;20065;-59
2022/08/29 07:57:42;;;;;;;4.07;1.80;;;22.20;78.40;;;;;;9994059;28;20443;-60
2022/08/29 08:02:32;;;;;;;2.75;1.80;;;22.20;78.60;;;;;;10013045;28;20510;-60
2022/08/29 08:07:23;;;;;;;5.25;2.40;;;22.10;78.80;;;;;;10012463;28;20042;-60
2022/08/29 08:12:13;;;;;;;5.68;2.47;;;22.00;79.20;;;;;;10012895;28;20065;-61
2022/08/29 08:17:04;;;;;;;5.07;2.28;;;22.30;78.60;;;;;;10012216;28;20072;-60
2022/08/29 08:21:54;;;;;;;4.60;2.40;;;22.30;78.50;;;;;;10006854;28;20771;-60
2022/08/29 08:26:47;;;;;;;5.75;2.35;;;22.30;78.60;;;;;;10006667;28;20034;-60
2022/08/29 08:31:43;;;;;;;5.47;1.98;;;22.40;78.60;;;;;;9995013;28;20076;-59
2022/08/29 08:36:37;;;;;;;4.10;2.15;;;22.60;78.60;;;;;;10010052;28;20088;-59
2022/08/29 08:41:49;;;;;;;2.50;1.50;;;22.50;78.50;;;;;;10012507;28;20512;-59
2022/08/29 08:46:44;;;;;;;5.32;2.40;;;22.70;78.40;;;;;;10019052;28;20031;-59
2022/08/29 08:51:37;;;;;;;6.90;2.47;;;22.60;78.60;;;;;;9941785;28;20505;-59
2022/08/29 08:56:34;;;;;;;7.03;2.40;;;22.70;78.60;;;;;;9940912;28;20310;-59
2022/08/29 09:01:36;;;;;;;5.57;2.30;;;23.00;78.50;;;;;;9941148;28;20054;-61
2022/08/29 09:06:39;;;;;;;2.40;1.85;;;23.00;78.50;;;;;;9933174;28;20026;-60
2022/08/29 09:11:45;;;;;;;7.28;2.92;;;23.20;78.90;;;;;;9943036;28;20046;-62
2022/08/29 09:16:42;;;;;;;4.35;2.08;;;23.20;78.50;;;;;;9939372;28;20015;-62
2022/08/29 09:21:42;;;;;;;4.25;2.10;;;23.40;78.20;;;;;;9939602;28;20035;-61
2022/08/29 09:26:33;;;;;;;4.65;2.10;;;23.50;78.20;;;;;;9939766;28;20019;-61
2022/08/29 09:31:33;;;;;;;4.78;2.35;;;23.70;78.10;;;;;;9939254;28;20512;-61
2022/08/29 09:36:49;;;;;;;6.90;3.85;;;23.90;78.00;;;;;;9938910;28;20038;-62
2022/08/29 09:41:40;;;;;;;4.13;2.92;;;24.00;78.00;;;;;;9939544;28;20244;-60
2022/08/29 09:46:31;;;;;;;4.93;2.47;;;24.10;77.90;;;;;;9931462;28;20027;-63
2022/08/29 09:51:33;;;;;;;4.35;1.98;;;24.20;77.70;;;;;;10014200;28;20072;-60
2022/08/29 09:56:26;;;;;;;2.42;2.22;;;24.20;78.00;;;;;;10015200;28;20014;-59
2022/08/29 10:01:19;;;;;;;3.80;2.00;;;24.40;77.90;;;;;;10016666;28;20029;-60
2022/08/29 10:06:16;;;;;;;4.68;2.53;;;24.50;77.70;;;;;;10000717;28;20053;-61
2022/08/29 10:11:22;;;;;;;9.43;4.00;;;24.60;77.70;;;;;;10016025;28;20029;-62
2022/08/29 10:16:36;;;;;;;3.20;2.05;;;24.70;77.70;;;;;;10020245;28;20065;-61
2022/08/29 10:21:54;;;;;;;6.43;3.38;;;24.90;77.70;;;;;;10015738;28;20556;-61
2022/08/29 10:26:44;;;;;;;7.07;3.30;;;25.00;78.00;;;;;;10010357;28;20026;-61
2022/08/29 10:31:44;;;;;;;3.72;2.55;;;25.30;77.10;;;;;;10007192;28;20044;-61
2022/08/29 10:36:38;;;;;;;4.13;2.47;;;25.30;77.80;;;;;;10015261;28;20366;-60
2022/08/29 10:41:49;;;;;;;3.97;2.33;;;25.40;77.00;;;;;;10015242;28;20028;-62
2022/08/29 10:46:46;;;;;;;4.75;2.88;;;25.50;77.10;;;;;;10014138;28;20025;-61
2022/08/29 10:51:52;;;;;;;6.72;3.50;;;25.60;77.10;;;;;;10015194;28;20056;-61
2022/08/29 10:56:46;;;;;;;4.05;2.30;;;25.70;76.90;;;;;;10014816;28;20473;-63
2022/08/29 11:01:42;;;;;;;9.55;3.58;;;25.70;76.90;;;;;;10015095;28;20109;-61
2022/08/29 11:06:43;;;;;;;4.85;2.78;;;25.80;76.80;;;;;;10015649;28;20373;-60
2022/08/29 11:11:36;;;;;;;4.82;2.70;;;26.00;76.60;;;;;;10020728;28;20055;-61
2022/08/29 11:16:40;;;;;;;5.90;3.58;;;26.20;76.30;;;;;;10015742;28;20048;-60
2022/08/29 11:21:39;;;;;;;6.57;3.47;;;26.40;76.20;;;;;;9995535;28;20037;-60
2022/08/29 11:26:32;;;;;;;4.22;2.58;;;26.40;76.00;;;;;;10004390;28;20751;-60
2022/08/29 11:31:29;;;;;;;8.85;3.13;;;26.70;75.80;;;;;;10013049;28;20046;-59
2022/08/29 11:36:26;;;;;;;4.70;2.90;;;26.70;75.60;;;;;;10012367;28;20419;-61
2022/08/29 11:41:25;;;;;;;4.53;2.90;;;26.70;75.40;;;;;;10008299;28;20030;-59
2022/08/29 11:46:35;;;;;;;4.20;2.60;;;26.80;75.30;;;;;;10006447;28;20163;-61
2022/08/29 11:51:29;;;;;;;3.42;2.65;;;26.80;74.90;;;;;;10010663;28;20113;-60
2022/08/29 11:56:24;;;;;;;7.23;3.00;;;27.00;74.80;;;;;;9993838;28;20121;-60
2022/08/29 12:01:24;;;;;;;4.82;2.58;;;27.10;74.60;;;;;;10014450;28;20033;-59
2022/08/29 12:06:18;;;;;;;6.78;3.03;;;27.30;74.30;;;;;;9997749;28;20036;-61
2022/08/29 12:11:09;;;;;;;8.60;3.65;;;27.30;74.00;;;;;;10013596;28;20084;-60
2022/08/29 12:16:08;;;;;;;4.47;3.42;;;27.70;73.70;;;;;;10029945;28;20095;-61
2022/08/29 12:21:01;;;;;;;6.70;3.17;;;27.80;73.30;;;;;;10019438;28;20018;-60
2022/08/29 12:26:04;;;;;;;4.20;3.42;;;28.00;73.10;;;;;;10020192;28;20057;-60
2022/08/29 12:30:57;;;;;;;3.85;3.20;;;28.50;72.90;;;;;;10019565;28;20060;-60
2022/08/29 12:36:29;;;;;;;5.22;3.13;;;28.80;72.70;;;;;;10020310;28;20444;-61
2022/08/29 12:41:35;;;;;;;4.38;3.03;;;29.10;72.30;;;;;;10015563;28;20105;-60
2022/08/29 12:46:34;;;;;;;9.40;3.83;;;29.30;72.10;;;;;;10019702;28;20032;-60
2022/08/29 12:51:37;;;;;;;5.38;3.50;;;29.60;72.10;;;;;;10011611;28;20148;-60
2022/08/29 12:56:28;;;;;;;5.60;3.22;;;30.30;72.00;;;;;;10018476;28;20116;-60
2022/08/29 13:01:30;;;;;;;4.20;2.97;;;30.60;72.20;;;;;;10019287;28;20507;-60
2022/08/29 13:06:21;;;;;;;5.32;3.67;;;31.00;71.50;;;;;;10022458;28;20058;-60
2022/08/29 13:11:12;;;;;;;4.17;3.20;;;31.40;71.40;;;;;;10016080;28;20042;-60
2022/08/29 13:16:06;;;;;;;5.90;2.97;;;32.20;70.80;;;;;;10023423;28;20404;-60
2022/08/29 13:21:30;;;;;;;5.10;2.90;;;32.80;69.50;;;;;;10018436;28;20021;-61
2022/08/29 13:26:23;;;;;;;2.90;2.45;;;33.50;67.00;;;;;;10003141;28;20042;-62
2022/08/29 13:31:13;;;;;;;4.22;2.88;;;34.40;66.30;;;;;;9995820;28;20389;-62
2022/08/29 13:36:59;;;;;;;5.22;3.22;;;35.50;63.90;;;;;;10017457;28;20026;-62
2022/08/29 13:42:18;;;;;;;3.00;2.60;;;35.50;59.90;;;;;;9931687;28;20092;-61
2022/08/29 13:47:39;;;;;;;3.72;3.17;;;36.60;58.40;;;;;;10034425;22;20076;-61
2022/08/29 13:52:29;;;;;;;6.32;2.95;;;35.90;58.30;;;;;;9996012;28;20137;-64
2022/08/29 13:57:23;;;;;;;4.38;2.90;;;36.90;57.30;;;;;;10016046;28;20327;-65
2022/08/29 14:02:14;;;;;;;4.63;2.63;;;37.30;56.40;;;;;;10015123;28;20037;-61
2022/08/29 14:07:05;;;;;;;3.45;2.67;;;38.00;55.20;;;;;;10016103;28;20080;-63
2022/08/29 14:11:56;;;;;;;3.40;2.90;;;37.60;54.70;;;;;;10015134;28;20485;-63
2022/08/29 14:16:50;;;;;;;4.05;3.08;;;37.60;54.10;;;;;;10007106;28;20074;-63
2022/08/29 14:21:40;;;;;;;4.15;2.47;;;38.20;52.60;;;;;;10015750;28;20088;-64
2022/08/29 14:26:31;;;;;;;3.42;2.80;;;37.40;52.80;;;;;;10014259;28;20075;-62
2022/08/29 14:31:21;;;;;;;4.70;2.75;;;37.10;52.30;;;;;;10015100;28;20500;-65
2022/08/29 14:36:12;;;;;;;5.22;2.97;;;36.40;52.40;;;;;;10014945;28;20025;-61
2022/08/29 14:41:03;;;;;;;4.43;2.83;;;35.60;52.90;;;;;;10011427;28;20197;-60
2022/08/29 14:45:53;;;;;;;5.37;2.57;;;35.10;52.80;;;;;;10013287;28;20049;-64
2022/08/29 14:50:44;;;;;;;4.10;3.00;;;35.20;52.80;;;;;;10006030;28;20512;-63
2022/08/29 14:55:35;;;;;;;;;;;36.40;51.80;;;;;;10014044;28;20492;-61
2022/08/29 15:00:28;;;;;;;3.90;2.72;;;37.50;50.70;;;;;;10015561;28;19921;-65
2022/08/29 15:05:19;;;;;;;4.90;3.42;;;36.90;51.00;;;;;;10013196;28;20030;-69
2022/08/29 15:10:11;;;;;;;4.35;2.70;;;36.40;51.30;;;;;;10009293;28;20030;-62
2022/08/29 15:15:02;;;;;;;3.13;2.50;;;37.10;50.40;;;;;;10013807;28;20038;-61
2022/08/29 15:19:53;;;;;;;3.80;2.65;;;37.80;49.60;;;;;;10014082;28;20552;-66
2022/08/29 15:24:44;;;;;;;3.90;2.60;;;38.70;48.60;;;;;;10004323;28;20109;-62
2022/08/29 15:29:45;;;;;;;6.15;2.92;;;38.50;48.10;;;;;;10014130;28;20133;-61
2022/08/29 15:34:35;;;;;;;3.33;2.50;;;37.60;48.60;;;;;;9996039;28;20258;-62
2022/08/29 15:39:27;;;;;;;;;;;38.80;48.20;;;;;;10012351;28;20484;-62
2022/08/29 15:44:18;;;;;;;3.80;2.72;;;40.80;46.40;;;;;;10013785;28;19920;-61
2022/08/29 15:49:08;;;;;;;5.72;2.92;;;41.20;46.10;;;;;;9993339;28;20051;-61
2022/08/29 15:53:59;;;;;;;3.97;2.90;;;42.20;44.90;;;;;;10007379;28;20092;-61
2022/08/29 15:58:50;;;;;;;2.95;2.65;;;41.70;44.50;;;;;;10013242;28;20152;-64
2022/08/29 16:03:42;;;;;;;2.45;2.25;;;41.40;44.20;;;;;;10013071;28;20407;-62
2022/08/29 16:08:33;;;;;;;4.32;2.67;;;41.60;43.40;;;;;;10001916;28;20030;-62
2022/08/29 16:13:23;;;;;;;2.75;2.45;;;42.50;42.80;;;;;;10012348;28;20034;-63
2022/08/29 16:18:14;;;;;;;5.60;2.35;;;42.80;42.10;;;;;;10012612;28;20034;-63
2022/08/29 16:23:05;;;;;;;3.95;2.83;;;42.00;41.90;;;;;;10013173;28;20037;-61
2022/08/29 16:27:56;;;;;;;3.30;2.95;;;42.80;41.20;;;;;;9994833;28;20516;-62
2022/08/29 16:32:48;;;;;;;3.45;2.50;;;42.20;41.10;;;;;;10012818;28;20040;-63
2022/08/29 16:37:39;;;;;;;3.80;2.63;;;41.40;40.90;;;;;;10006431;28;20022;-62
2022/08/29 16:42:30;;;;;;;4.45;2.83;;;41.00;40.90;;;;;;10012607;28;20109;-61
2022/08/29 16:47:20;;;;;;;3.97;2.77;;;40.70;41.00;;;;;;10013614;28;20069;-61
2022/08/29 16:52:11;;;;;;;3.27;2.97;;;40.40;41.00;;;;;;9999283;28;20096;-63
2022/08/29 16:57:02;;;;;;;5.40;2.97;;;40.10;41.30;;;;;;10012638;28;20022;-63
2022/08/29 17:01:53;;;;;;;3.30;3.00;;;39.50;41.60;;;;;;10012449;28;20312;-62
2022/08/29 17:06:47;;;;;;;3.33;2.60;;;39.10;41.90;;;;;;10016535;28;20026;-64
2022/08/29 17:16:29;;;;;;;4.57;2.63;;;38.60;42.30;;;;;;10018322;28;20137;-65
2022/08/29 17:21:20;;;;;;;5.22;3.20;;;37.90;42.40;;;;;;10018494;28;20427;-62
2022/08/29 17:26:15;;;;;;;3.50;2.88;;;34.90;44.90;;;;;;10017853;28;20030;-63
2022/08/29 17:31:06;;;;;;;4.50;2.70;;;33.10;46.70;;;;;;10010735;28;20045;-61
2022/08/29 17:35:58;;;;;;;8.65;3.10;;;32.10;47.50;;;;;;10008020;28;20104;-61
2022/08/29 17:40:49;;;;;;;5.38;3.38;;;31.50;48.00;;;;;;10019483;28;20026;-70
2022/08/29 17:45:40;;;;;;;3.65;2.67;;;31.00;48.80;;;;;;10012803;28;20634;-65
2022/08/29 17:50:31;;;;;;;6.65;2.67;;;30.80;49.00;;;;;;10006168;28;20042;-68
2022/08/29 17:55:22;;;;;;;5.00;3.10;;;30.50;49.50;;;;;;10010023;28;20026;-65
2022/08/29 18:00:13;;;;;;;5.85;2.70;;;30.30;50.10;;;;;;10018095;28;20030;-69
2022/08/29 18:05:05;;;;;;;4.93;2.88;;;30.00;50.70;;;;;;10016483;28;20512;-66
2022/08/29 18:09:56;;;;;;;3.85;2.88;;;30.00;50.90;;;;;;10016769;28;20029;-69
2022/08/29 18:14:47;;;;;;;4.03;2.65;;;29.70;51.40;;;;;;10011414;28;20045;-71
2022/08/29 18:19:38;;;;;;;3.38;3.05;;;29.50;51.80;;;;;;10016070;28;20527;-64
2022/08/29 18:24:29;;;;;;;5.50;2.85;;;29.30;52.20;;;;;;10015648;28;20626;-66
2022/08/29 18:29:20;;;;;;;4.45;2.65;;;29.20;52.60;;;;;;10016022;28;20045;-64
2022/08/29 18:34:11;;;;;;;3.42;2.13;;;29.00;52.90;;;;;;10015339;28;20049;-62
2022/08/29 18:39:04;;;;;;;5.25;2.90;;;28.90;53.20;;;;;;10015677;28;20030;-63
2022/08/29 18:43:55;;;;;;;5.10;2.80;;;28.80;53.40;;;;;;9996854;28;20124;-64
2022/08/29 18:48:46;;;;;;;4.35;2.70;;;28.80;53.50;;;;;;9997788;28;20665;-65
2022/08/29 18:53:38;;;;;;;3.88;2.88;;;28.70;53.70;;;;;;10003689;28;20033;-66
2022/08/29 18:58:31;;;;;;;3.67;2.72;;;28.60;53.90;;;;;;10011248;28;20026;-62
2022/08/29 19:03:22;;;;;;;3.55;2.50;;;28.50;54.30;;;;;;10014923;28;20116;-66
2022/08/29 19:08:14;;;;;;;4.18;2.47;;;28.40;54.40;;;;;;10013572;28;20091;-62
2022/08/29 19:13:08;;;;;;;7.70;2.95;;;28.30;54.60;;;;;;10013236;28;20397;-64
2022/08/29 19:17:58;;;;;;;5.07;2.63;;;28.10;54.90;;;;;;10014567;28;20177;-62
2022/08/29 19:22:50;;;;;;;6.05;2.47;;;28.10;55.00;;;;;;9996248;28;20525;-63
2022/08/29 19:27:41;;;;;;;3.53;2.70;;;28.00;55.10;;;;;;10013607;28;20026;-63
2022/08/29 19:32:31;;;;;;;6.30;2.97;;;27.90;55.30;;;;;;10013935;28;20049;-63
2022/08/29 19:37:22;;;;;;;4.40;2.88;;;27.90;55.50;;;;;;10005217;28;20033;-66
2022/08/29 19:42:13;;;;;;;3.63;2.97;;;27.80;55.60;;;;;;10012987;28;20026;-68
2022/08/29 19:47:04;;;;;;;6.00;2.72;;;27.80;55.90;;;;;;10012213;28;20046;-69
2022/08/29 19:51:55;;;;;;;4.72;2.72;;;27.70;55.90;;;;;;9983137;28;20030;-61
2022/08/29 19:56:45;;;;;;;4.13;2.83;;;27.60;56.10;;;;;;10011573;28;20080;-61
2022/08/29 20:01:36;;;;;;;8.85;3.40;;;27.40;56.60;;;;;;10012617;28;20022;-66
2022/08/29 20:06:27;;;;;;;3.30;2.40;;;27.20;57.20;;;;;;9999683;28;20029;-61
2022/08/29 20:11:23;;;;;;;6.05;3.00;;;27.20;57.20;;;;;;9993496;28;20420;-61
2022/08/29 20:16:16;;;;;;;4.50;2.53;;;27.20;57.60;;;;;;10012308;28;20026;-68
2022/08/29 20:21:07;;;;;;;5.80;2.15;;;27.00;57.60;;;;;;10000773;28;20179;-62
2022/08/29 20:26:00;;;;;;;2.78;2.10;;;26.90;57.70;;;;;;10013340;28;20034;-62
2022/08/29 20:30:51;;;;;;;3.00;2.03;;;26.80;57.50;;;;;;10011947;28;20249;-63
2022/08/29 20:40:51;;;;;;;2.20;1.98;;;26.70;57.10;;;;;;10017024;28;20145;-62
2022/08/29 20:45:42;;;;;;;3.60;2.25;;;26.70;56.80;;;;;;10019823;28;20108;-63
2022/08/29 20:50:33;;;;;;;5.95;2.40;;;26.60;56.60;;;;;;10006624;28;20065;-62
2022/08/29 20:55:24;;;;;;;4.70;2.03;;;26.60;56.40;;;;;;10019309;28;20459;-62
2022/08/29 21:00:18;;;;;;;5.75;2.13;;;26.60;56.00;;;;;;10019718;28;20492;-62
2022/08/29 21:10:19;;;;;;;3.45;2.00;;;26.40;55.70;;;;;;10019098;28;20115;-61
2022/08/29 21:15:10;;;;;;;2.45;2.22;;;26.40;55.60;;;;;;10016430;28;20076;-62
2022/08/29 21:20:01;;;;;;;2.25;1.60;;;26.30;55.40;;;;;;10019234;28;20076;-62
2022/08/29 21:24:54;;;;;;;3.13;1.60;;;26.30;55.30;;;;;;10017690;28;20453;-61
2022/08/29 21:29:45;;;;;;;2.83;1.83;;;26.20;55.30;;;;;;10013492;28;20399;-61
2022/08/29 21:34:36;;;;;;;4.25;2.08;;;26.10;55.30;;;;;;10019079;28;20042;-65
2022/08/29 21:39:26;;;;;;;2.90;1.50;;;26.00;55.60;;;;;;10018981;28;20029;-64
2022/08/29 21:44:18;;;;;;;3.28;1.55;;;26.00;55.30;;;;;;10016116;28;20193;-65
2022/08/29 21:49:12;;;;;;;2.90;1.63;;;25.80;55.50;;;;;;10000091;28;20160;-61
2022/08/29 21:54:04;;;;;;;3.90;1.77;;;25.80;55.50;;;;;;10015969;28;20037;-64
2022/08/29 21:58:55;;;;;;;4.07;2.15;;;25.70;55.70;;;;;;10005947;28;20010;-60
2022/08/29 22:03:47;;;;;;;3.25;1.85;;;25.60;55.70;;;;;;9998687;28;20026;-61
2022/08/29 22:08:37;;;;;;;5.07;1.80;;;25.60;55.70;;;;;;10016335;28;20030;-61
2022/08/29 22:13:28;;;;;;;3.08;1.80;;;25.60;55.70;;;;;;10012380;28;20412;-62
2022/08/29 22:18:19;;;;;;;2.78;1.98;;;25.40;56.00;;;;;;10015888;28;20365;-61
2022/08/29 22:23:10;;;;;;;2.50;1.80;;;25.30;56.20;;;;;;10016162;28;20041;-62
2022/08/29 22:28:02;;;;;;;3.20;2.00;;;25.30;56.40;;;;;;10008990;28;20040;-62
2022/08/29 22:32:52;;;;;;;4.57;1.70;;;25.20;56.50;;;;;;10015288;28;20619;-63
2022/08/29 22:37:43;;;;;;;2.40;1.60;;;25.10;56.80;;;;;;10015503;28;20202;-62
2022/08/29 22:42:34;;;;;;;3.78;1.70;;;25.20;57.40;;;;;;10013809;28;20033;-63
2022/08/29 22:47:25;;;;;;;4.70;1.88;;;25.10;57.00;;;;;;10017345;28;20045;-62
2022/08/29 22:52:16;;;;;;;5.07;1.80;;;24.90;57.50;;;;;;10007492;28;20486;-62
2022/08/29 22:57:13;;;;;;;3.65;1.85;;;24.90;57.60;;;;;;10015325;28;20018;-60
2022/08/29 23:02:05;;;;;;;5.22;2.58;;;24.80;57.80;;;;;;10016405;28;20117;-61
2022/08/29 23:06:56;;;;;;;3.05;1.70;;;24.80;57.90;;;;;;10015299;28;20030;-61
2022/08/29 23:11:47;;;;;;;4.85;2.20;;;24.70;58.10;;;;;;10008724;28;20056;-61
2022/08/29 23:16:37;;;;;;;5.13;1.75;;;24.80;58.00;;;;;;10015020;28;20017;-61
2022/08/29 23:21:30;;;;;;;3.28;1.63;;;24.70;58.30;;;;;;10013719;28;20476;-60
2022/08/29 23:26:22;;;;;;;2.50;1.70;;;24.70;58.30;;;;;;10004943;28;21187;-60
2022/08/29 23:31:16;;;;;;;2.40;1.83;;;24.60;58.50;;;;;;10014276;28;20100;-60
2022/08/29 23:36:07;;;;;;;2.53;1.73;;;24.60;58.60;;;;;;10013643;28;20065;-61
2022/08/29 23:40:59;;;;;;;3.88;2.20;;;24.60;58.80;;;;;;10013987;28;20458;-60
2022/08/29 23:45:53;;;;;;;4.75;1.95;;;24.50;58.90;;;;;;10014606;28;20392;-69
2022/08/29 23:50:44;;;;;;;3.97;2.27;;;24.50;58.90;;;;;;9986796;28;20273;-63
2022/08/29 23:55:35;;;;;;;5.15;2.25;;;24.50;59.10;;;;;;10013269;28;20064;-64
